createdAt,value
2023-02-16T00:00:38.364Z,99485.75
2023-02-16T00:03:27.741Z,99491.38
2023-02-16T00:06:16.310Z,99491.38
2023-02-16T00:09:04.090Z,99486.25
2023-02-16T00:12:10.577Z,99478.53
2023-02-16T00:14:59.984Z,99481.38
2023-02-16T00:17:51.995Z,99480.41
2023-02-16T00:20:39.619Z,99477.78
2023-02-16T00:23:40.729Z,99476.03
2023-02-16T00:26:36.705Z,99481.28
2023-02-16T00:29:29.289Z,99470.94
2023-02-16T00:32:18.130Z,99467.41
2023-02-16T00:35:16.614Z,99469.44
2023-02-16T00:38:04.767Z,99468.34
2023-02-16T00:40:52.703Z,99467.66
2023-02-16T00:43:40.290Z,99479.94
2023-02-16T00:46:28.015Z,99484.13
2023-02-16T00:49:18.280Z,99476.16
2023-02-16T00:52:33.954Z,99474.59
2023-02-16T00:55:27.196Z,99473.66
2023-02-16T00:58:24.660Z,99472.88
2023-02-16T01:01:19.728Z,99478.22
2023-02-16T01:04:13.595Z,99466.94
2023-02-16T01:07:19.995Z,99477.44
2023-02-16T01:10:26.721Z,99468.84
2023-02-16T01:13:15.052Z,99468.75
2023-02-16T01:16:03.402Z,99471.41
2023-02-16T01:18:52.223Z,99471.19
2023-02-16T01:21:40.213Z,99462.31
2023-02-16T01:24:29.134Z,99456.84
2023-02-16T01:27:16.694Z,99452.38
2023-02-16T01:30:04.882Z,99453.19
2023-02-16T01:32:55.637Z,99453.19
2023-02-16T01:35:44.059Z,99450.88
2023-02-16T01:38:32.301Z,99446.63
2023-02-16T01:41:38.607Z,99442.44
2023-02-16T01:44:31.512Z,99445.00
2023-02-16T01:47:39.300Z,99453.69
2023-02-16T01:50:45.793Z,99450.16
2023-02-16T01:53:53.134Z,99451.84
2023-02-16T01:56:57.241Z,99451.16
2023-02-16T02:00:25.083Z,99450.28
2023-02-16T02:06:42.895Z,99442.75
2023-02-16T02:09:48.759Z,99423.78
2023-02-16T02:12:49.304Z,99424.72
2023-02-16T02:15:48.067Z,99425.75
2023-02-16T02:18:36.128Z,99411.19
2023-02-16T02:22:26.471Z,99414.03
2023-02-16T02:26:03.787Z,99407.28
2023-02-16T02:29:08.209Z,99405.72
2023-02-16T02:32:18.489Z,99409.44
2023-02-16T02:35:30.680Z,99397.41
2023-02-16T02:38:36.834Z,99397.69
2023-02-16T02:41:50.577Z,99397.94
2023-02-16T02:44:58.241Z,99388.63
2023-02-16T02:47:48.660Z,99398.44
2023-02-16T02:51:09.673Z,99395.97
2023-02-16T02:54:22.719Z,99395.47
2023-02-16T02:57:48.762Z,99392.34
2023-02-16T03:00:47.868Z,99386.69
2023-02-16T03:03:46.844Z,99390.09
2023-02-16T03:06:39.592Z,99381.56
2023-02-16T03:09:33.184Z,99379.88
2023-02-16T03:12:53.342Z,99378.41
2023-02-16T03:15:45.591Z,99369.97
2023-02-16T03:19:01.207Z,99377.75
2023-02-16T03:26:01.687Z,99375.50
2023-02-16T03:29:11.290Z,99375.63
2023-02-16T03:32:01.537Z,99368.81
2023-02-16T03:34:56.662Z,99370.59
2023-02-16T03:37:52.508Z,99373.31
2023-02-16T03:41:35.251Z,99369.13
2023-02-16T03:44:31.032Z,99381.38
2023-02-16T03:47:37.730Z,99370.94
2023-02-16T03:50:30.556Z,99374.44
2023-02-16T03:53:34.191Z,99383.25
2023-02-16T03:56:24.407Z,99388.56
2023-02-16T03:59:18.926Z,99385.25
2023-02-16T04:02:13.259Z,99388.78
2023-02-16T04:05:07.637Z,99390.56
2023-02-16T04:08:08.027Z,99392.38
2023-02-16T04:11:05.849Z,99399.38
2023-02-16T04:14:04.702Z,99400.28
2023-02-16T04:16:54.576Z,99392.59
2023-02-16T04:20:14.643Z,99400.44
2023-02-16T04:23:05.545Z,99406.50
2023-02-16T04:26:05.122Z,99397.06
2023-02-16T04:29:00.148Z,99386.81
2023-02-16T04:32:03.737Z,99392.97
2023-02-16T04:38:32.336Z,99383.72
2023-02-16T04:41:26.482Z,99387.22
2023-02-16T04:44:23.399Z,99381.25
2023-02-16T04:47:11.636Z,99384.78
2023-02-16T04:50:04.683Z,99380.53
2023-02-16T04:52:52.639Z,99376.25
2023-02-16T04:55:47.077Z,99380.66
2023-02-16T04:58:34.580Z,99383.94
2023-02-16T05:01:25.209Z,99398.88
2023-02-16T05:04:13.044Z,99394.69
2023-02-16T05:07:00.986Z,99399.06
2023-02-16T05:09:48.366Z,99393.03
2023-02-16T05:12:54.968Z,99394.78
2023-02-16T05:15:42.405Z,99384.44
2023-02-16T05:18:29.861Z,99390.25
2023-02-16T05:21:32.859Z,99386.38
2023-02-16T05:24:22.520Z,99400.53
2023-02-16T05:27:15.118Z,99398.59
2023-02-16T05:30:05.170Z,99401.16
2023-02-16T05:32:52.842Z,99407.97
2023-02-16T05:35:40.645Z,99401.78
2023-02-16T05:38:28.477Z,99406.66
2023-02-16T05:41:23.521Z,99413.50
2023-02-16T05:44:12.567Z,99411.59
2023-02-16T05:47:01.524Z,99412.38
2023-02-16T05:49:49.237Z,99401.00
2023-02-16T05:52:36.782Z,99409.47
2023-02-16T05:55:24.468Z,99398.94
2023-02-16T05:58:12.240Z,99410.22
2023-02-16T06:01:00.146Z,99412.63
2023-02-16T06:03:50.288Z,99418.69
2023-02-16T06:06:38.548Z,99427.31
2023-02-16T06:09:26.341Z,99423.69
2023-02-16T06:12:16.933Z,99428.78
2023-02-16T06:15:05.559Z,99431.34
2023-02-16T06:17:53.452Z,99431.28
2023-02-16T06:20:45.868Z,99440.75
2023-02-16T06:23:33.504Z,99436.41
2023-02-16T06:26:21.268Z,99428.69
2023-02-16T06:29:09.545Z,99432.72
2023-02-16T06:31:57.435Z,99434.72
2023-02-16T06:34:45.089Z,99448.47
2023-02-16T06:37:37.100Z,99450.91
2023-02-16T06:40:25.802Z,99437.78
2023-02-16T06:43:13.341Z,99440.19
2023-02-16T06:46:01.007Z,99449.75
2023-02-16T06:48:48.771Z,99448.19
2023-02-16T06:51:36.327Z,99456.88
2023-02-16T06:54:25.592Z,99457.66
2023-02-16T06:57:13.601Z,99452.44
2023-02-16T07:00:01.303Z,99457.50
2023-02-16T07:02:48.837Z,99466.13
2023-02-16T07:05:36.189Z,99457.66
2023-02-16T07:08:23.832Z,99466.44
2023-02-16T07:11:13.573Z,99459.44
2023-02-16T07:14:01.033Z,99448.91
2023-02-16T07:16:48.480Z,99447.31
2023-02-16T07:19:36.206Z,99447.31
2023-02-16T07:22:24.079Z,99451.63
2023-02-16T07:25:14.117Z,99449.94
2023-02-16T07:28:04.655Z,99466.25
2023-02-16T07:30:53.244Z,99456.69
2023-02-16T07:33:45.358Z,99458.56
2023-02-16T07:36:37.399Z,99453.38
2023-02-16T07:39:25.200Z,99455.88
2023-02-16T07:42:14.052Z,99445.59
2023-02-16T07:45:03.670Z,99442.22
2023-02-16T07:47:51.274Z,99440.28
2023-02-16T07:50:39.130Z,99443.59
2023-02-16T07:53:27.000Z,99448.66
2023-02-16T07:56:25.827Z,99446.97
2023-02-16T07:59:16.826Z,99437.50
2023-02-16T08:02:06.119Z,99448.69
2023-02-16T08:04:54.073Z,99441.03
2023-02-16T08:07:42.127Z,99448.81
2023-02-16T08:10:29.949Z,99438.28
2023-02-16T08:13:17.824Z,99436.28
2023-02-16T08:16:10.244Z,99437.50
2023-02-16T08:19:03.580Z,99433.78
2023-02-16T08:21:50.919Z,99442.50
2023-02-16T08:24:39.244Z,99440.56
2023-02-16T08:27:27.559Z,99443.75
2023-02-16T08:30:18.169Z,99451.69
2023-02-16T08:33:06.018Z,99446.22
2023-02-16T08:35:55.341Z,99449.84
2023-02-16T08:38:43.315Z,99451.22
2023-02-16T08:41:34.654Z,99443.78
2023-02-16T08:44:25.069Z,99437.16
2023-02-16T08:47:12.727Z,99442.38
2023-02-16T08:50:00.591Z,99445.16
2023-02-16T08:52:52.309Z,99457.78
2023-02-16T08:55:40.484Z,99447.91
2023-02-16T08:58:28.588Z,99458.31
2023-02-16T09:01:16.679Z,99467.56
2023-02-16T09:04:04.955Z,99464.38
2023-02-16T09:06:53.688Z,99471.34
2023-02-16T09:09:44.480Z,99474.66
2023-02-16T09:12:35.291Z,99483.72
2023-02-16T09:15:25.805Z,99488.22
2023-02-16T09:18:14.650Z,99488.06
2023-02-16T09:21:07.616Z,99484.09
2023-02-16T09:23:58.290Z,99494.16
2023-02-16T09:26:48.159Z,99481.44
2023-02-16T09:29:35.828Z,99477.03
2023-02-16T09:32:24.327Z,99477.34
2023-02-16T09:35:12.474Z,99475.16
2023-02-16T09:38:00.136Z,99481.78
2023-02-16T09:40:47.933Z,99478.50
2023-02-16T09:43:50.565Z,99483.28
2023-02-16T09:46:40.850Z,99471.72
2023-02-16T09:49:37.168Z,99476.13
2023-02-16T09:52:37.060Z,99481.00
2023-02-16T09:55:30.603Z,99469.84
2023-02-16T09:58:23.233Z,99470.75
2023-02-16T10:01:29.039Z,99462.75
2023-02-16T10:04:39.045Z,99456.00
2023-02-16T10:07:46.800Z,99453.97
2023-02-16T10:10:48.425Z,99457.91
2023-02-16T10:13:47.245Z,99447.13
2023-02-16T10:16:44.016Z,99441.84
2023-02-16T10:19:43.156Z,99436.47
2023-02-16T10:22:37.892Z,99439.03
2023-02-16T10:25:36.561Z,99436.75
2023-02-16T10:28:41.081Z,99421.81
2023-02-16T10:31:40.278Z,99419.28
2023-02-16T10:34:48.577Z,99420.78
2023-02-16T10:37:59.297Z,99412.38
2023-02-16T10:41:00.166Z,99404.00
2023-02-16T10:43:55.703Z,99402.50
2023-02-16T10:46:53.431Z,99388.63
2023-02-16T10:49:41.326Z,99379.28
2023-02-16T10:52:36.115Z,99384.31
2023-02-16T10:55:23.803Z,99377.06
2023-02-16T10:58:23.184Z,99372.78
2023-02-16T11:01:17.027Z,99367.03
2023-02-16T11:04:07.241Z,99356.28
2023-02-16T11:07:06.041Z,99357.78
2023-02-16T11:09:57.263Z,99354.28
2023-02-16T11:12:45.584Z,99343.34
2023-02-16T11:15:36.421Z,99342.19
2023-02-16T11:18:34.898Z,99337.63
2023-02-16T11:21:47.324Z,99325.16
2023-02-16T11:24:38.323Z,99326.00
2023-02-16T11:27:27.076Z,99311.91
2023-02-16T11:30:29.443Z,99316.50
2023-02-16T11:33:27.082Z,99308.38
2023-02-16T11:36:27.047Z,99312.94
2023-02-16T11:39:21.973Z,99311.75
2023-02-16T11:42:21.892Z,99311.72
2023-02-16T11:45:24.907Z,99304.31
2023-02-16T11:48:28.952Z,99304.09
2023-02-16T11:51:32.974Z,99296.59
2023-02-16T11:54:22.300Z,99289.34
2023-02-16T11:57:15.676Z,99297.03
2023-02-16T12:00:18.461Z,99306.34
2023-02-16T12:03:39.119Z,99305.03
2023-02-16T12:06:47.145Z,99286.81
2023-02-16T12:09:50.906Z,99275.97
2023-02-16T12:12:54.069Z,99260.03
2023-02-16T12:15:51.062Z,99271.63
2023-02-16T12:18:52.275Z,99278.28
2023-02-16T12:21:47.771Z,99281.16
2023-02-16T12:24:54.539Z,99272.59
2023-02-16T12:27:57.996Z,99246.81
2023-02-16T12:31:03.788Z,99263.97
2023-02-16T12:34:08.312Z,99245.94
2023-02-16T12:37:10.356Z,99231.22
2023-02-16T12:40:14.652Z,99239.78
2023-02-16T12:43:23.026Z,99249.88
2023-02-16T12:46:30.573Z,99224.56
2023-02-16T12:49:25.578Z,99230.06
2023-02-16T12:52:33.946Z,99234.66
2023-02-16T12:55:36.310Z,99229.38
2023-02-16T12:58:31.033Z,99231.06
2023-02-16T13:01:25.505Z,99231.06
2023-02-16T13:04:25.775Z,99229.78
2023-02-16T13:07:26.990Z,99218.69
2023-02-16T13:10:24.740Z,99208.81
2023-02-16T13:13:19.006Z,99211.84
2023-02-16T13:16:29.172Z,99216.56
2023-02-16T13:19:18.535Z,99195.72
2023-02-16T13:22:44.507Z,99192.22
2023-02-16T13:26:05.871Z,99184.47
2023-02-16T13:29:24.364Z,99181.28
2023-02-16T13:32:48.361Z,99177.91
2023-02-16T13:36:19.077Z,99174.94
2023-02-16T13:39:43.377Z,99163.50
2023-02-16T13:43:27.577Z,99167.53
2023-02-16T13:46:31.308Z,99157.13
2023-02-16T13:49:38.665Z,99159.66
2023-02-16T13:52:35.574Z,99152.13
2023-02-16T13:55:34.938Z,99162.38
2023-02-16T13:58:33.602Z,99181.16
2023-02-16T14:01:43.047Z,99189.03
2023-02-16T14:05:10.729Z,99182.50
2023-02-16T14:08:27.971Z,99183.00
2023-02-16T14:11:19.123Z,99187.03
2023-02-16T14:14:31.204Z,99164.91
2023-02-16T14:17:30.461Z,99176.50
2023-02-16T14:20:35.850Z,99170.59
2023-02-16T14:23:43.426Z,99177.31
2023-02-16T14:26:55.624Z,99169.25
2023-02-16T14:29:55.010Z,99173.28
2023-02-16T14:32:54.671Z,99180.16
2023-02-16T14:35:47.899Z,99178.63
2023-02-16T14:38:38.468Z,99186.94
2023-02-16T14:41:33.637Z,99195.28
2023-02-16T14:44:54.220Z,99190.06
2023-02-16T14:48:01.066Z,99197.22
2023-02-16T14:51:18.947Z,99184.63
2023-02-16T14:54:52.619Z,99180.94
2023-02-16T14:57:51.958Z,99181.09
2023-02-16T15:00:50.923Z,99185.06
2023-02-16T15:03:50.248Z,99181.88
2023-02-16T15:06:44.026Z,99175.19
2023-02-16T15:09:35.105Z,99191.56
2023-02-16T15:12:30.004Z,99192.50
2023-02-16T15:15:27.599Z,99187.25
2023-02-16T15:18:22.250Z,99172.88
2023-02-16T15:21:20.716Z,99181.34
2023-02-16T15:24:22.996Z,99181.78
2023-02-16T15:27:23.803Z,99170.44
2023-02-16T15:30:24.623Z,99170.44
2023-02-16T15:33:33.836Z,99160.66
2023-02-16T15:36:31.427Z,99165.09
2023-02-16T15:39:45.233Z,99167.88
2023-02-16T15:42:39.703Z,99161.22
2023-02-16T15:45:35.278Z,99157.09
2023-02-16T15:48:30.398Z,99155.28
2023-02-16T15:51:24.918Z,99154.34
2023-02-16T15:54:28.982Z,99156.19
2023-02-16T15:57:31.956Z,99148.09
2023-02-16T16:00:23.423Z,99154.31
2023-02-16T16:03:17.906Z,99144.84
2023-02-16T16:06:08.488Z,99151.09
2023-02-16T16:08:56.355Z,99150.81
2023-02-16T16:11:44.410Z,99159.56
2023-02-16T16:14:36.661Z,99161.28
2023-02-16T16:17:29.872Z,99166.94
2023-02-16T16:20:30.433Z,99172.44
2023-02-16T16:23:28.281Z,99180.59
2023-02-16T16:26:21.631Z,99183.41
2023-02-16T16:29:34.451Z,99191.72
2023-02-16T16:32:25.565Z,99189.31
2023-02-16T16:35:24.383Z,99188.72
2023-02-16T16:38:27.100Z,99186.50
2023-02-16T16:41:29.099Z,99188.72
2023-02-16T16:44:35.364Z,99180.16
2023-02-16T16:47:31.402Z,99188.53
2023-02-16T16:50:39.515Z,99186.53
2023-02-16T16:54:04.114Z,99179.06
2023-02-16T16:56:51.817Z,99170.47
2023-02-16T16:59:39.523Z,99176.75
2023-02-16T17:02:27.074Z,99177.81
2023-02-16T17:05:14.624Z,99177.31
2023-02-16T17:08:03.522Z,99182.78
2023-02-16T17:10:52.542Z,99180.34
2023-02-16T17:13:40.381Z,99183.03
2023-02-16T17:16:36.264Z,99178.66
2023-02-16T17:19:24.366Z,99186.66
2023-02-16T17:22:14.560Z,99180.69
2023-02-16T17:25:02.204Z,99172.91
2023-02-16T17:27:51.296Z,99173.91
2023-02-16T17:30:39.615Z,99181.91
2023-02-16T17:33:26.827Z,99184.47
2023-02-16T17:36:17.130Z,99180.88
2023-02-16T17:39:05.103Z,99183.41
2023-02-16T17:41:53.000Z,99182.47
2023-02-16T17:44:41.691Z,99182.38
2023-02-16T17:47:29.296Z,99189.25
2023-02-16T17:50:18.160Z,99188.25
2023-02-16T17:53:10.492Z,99188.16
2023-02-16T17:55:59.347Z,99187.97
2023-02-16T17:58:46.817Z,99188.72
2023-02-16T18:01:37.649Z,99181.50
2023-02-16T18:04:25.308Z,99187.38
2023-02-16T18:07:14.394Z,99175.81
2023-02-16T18:10:02.054Z,99178.28
2023-02-16T18:12:49.676Z,99182.38
2023-02-16T18:15:37.274Z,99178.50
2023-02-16T18:18:26.556Z,99176.31
2023-02-16T18:21:14.687Z,99178.47
2023-02-16T18:24:02.378Z,99184.25
2023-02-16T18:26:51.858Z,99190.09
2023-02-16T18:29:39.607Z,99192.00
2023-02-16T18:32:27.184Z,99195.72
2023-02-16T18:35:17.154Z,99196.88
2023-02-16T18:38:05.292Z,99200.72
2023-02-16T18:40:54.491Z,99196.50
2023-02-16T18:43:41.876Z,99196.75
2023-02-16T18:46:29.270Z,99195.28
2023-02-16T18:49:16.779Z,99185.75
2023-02-16T18:52:05.596Z,99183.47
2023-02-16T18:54:53.685Z,99191.53
2023-02-16T18:57:42.207Z,99198.81
2023-02-16T19:00:30.649Z,99199.91
2023-02-16T19:03:18.256Z,99207.09
2023-02-16T19:06:07.000Z,99206.56
2023-02-16T19:08:56.321Z,99206.56
2023-02-16T19:11:43.815Z,99203.19
2023-02-16T19:14:31.212Z,99199.94
2023-02-16T19:17:18.806Z,99205.44
2023-02-16T19:20:09.706Z,99199.53
2023-02-16T19:22:57.436Z,99196.91
2023-02-16T19:25:46.106Z,99206.72
2023-02-16T19:28:33.876Z,99194.81
2023-02-16T19:31:24.928Z,99199.22
2023-02-16T19:34:13.255Z,99201.06
2023-02-16T19:37:01.209Z,99193.34
2023-02-16T19:39:48.821Z,99192.94
2023-02-16T19:42:38.215Z,99199.19
2023-02-16T19:45:25.859Z,99194.81
2023-02-16T19:48:13.562Z,99200.31
2023-02-16T19:51:04.639Z,99192.75
2023-02-16T19:53:53.050Z,99192.66
2023-02-16T19:56:41.436Z,99189.25
2023-02-16T19:59:31.365Z,99191.03
2023-02-16T20:02:19.250Z,99185.88
2023-02-16T20:05:09.698Z,99188.50
2023-02-16T20:07:57.725Z,99198.16
2023-02-16T20:10:45.950Z,99197.41
2023-02-16T20:13:33.394Z,99191.25
2023-02-16T20:16:23.777Z,99193.19
2023-02-16T20:19:12.016Z,99188.84
2023-02-16T20:21:59.763Z,99187.25
2023-02-16T20:24:47.108Z,99189.16
2023-02-16T20:27:35.300Z,99195.41
2023-02-16T20:30:25.266Z,99187.59
2023-02-16T20:33:18.606Z,99189.38
2023-02-16T20:36:08.152Z,99179.78
2023-02-16T20:38:56.049Z,99181.69
2023-02-16T20:41:43.892Z,99176.53
2023-02-16T20:44:31.492Z,99177.56
2023-02-16T20:47:18.976Z,99174.00
2023-02-16T20:50:08.982Z,99167.00
2023-02-16T20:52:56.406Z,99174.91
2023-02-16T20:55:43.923Z,99169.75
2023-02-16T20:58:31.998Z,99177.56
2023-02-16T21:01:25.188Z,99167.22
2023-02-16T21:04:14.873Z,99164.78
2023-02-16T21:07:03.776Z,99176.09
2023-02-16T21:09:51.050Z,99167.31
2023-02-16T21:12:38.552Z,99169.13
2023-02-16T21:15:26.037Z,99171.03
2023-02-16T21:18:13.493Z,99179.91
2023-02-16T21:21:01.301Z,99171.13
2023-02-16T21:23:53.506Z,99179.91
2023-02-16T21:26:41.306Z,99171.25
2023-02-16T21:29:28.962Z,99160.69
2023-02-16T21:32:16.271Z,99164.28
2023-02-16T21:35:03.769Z,99161.66
2023-02-16T21:37:51.170Z,99158.16
2023-02-16T21:40:57.320Z,99155.63
2023-02-16T21:43:44.810Z,99153.09
2023-02-16T21:46:35.409Z,99153.94
2023-02-16T21:49:21.971Z,99144.34
2023-02-16T21:52:09.643Z,99147.81
2023-02-16T21:55:14.827Z,99144.34
2023-02-16T21:58:08.038Z,99150.56
2023-02-16T22:00:56.350Z,99147.19
2023-02-16T22:03:44.088Z,99138.53
2023-02-16T22:06:34.547Z,99126.09
2023-02-16T22:09:24.416Z,99120.59
2023-02-16T22:12:12.400Z,99126.25
2023-02-16T22:15:01.527Z,99119.31
2023-02-16T22:17:50.050Z,99117.00
2023-02-16T22:20:37.968Z,99119.72
2023-02-16T22:23:25.295Z,99113.00
2023-02-16T22:26:24.167Z,99115.97
2023-02-16T22:29:12.992Z,99117.84
2023-02-16T22:32:01.868Z,99120.81
2023-02-16T22:34:49.730Z,99120.91
2023-02-16T22:37:37.148Z,99122.09
2023-02-16T22:40:24.638Z,99118.91
2023-02-16T22:43:12.251Z,99122.72
2023-02-16T22:45:59.795Z,99116.91
2023-02-16T22:48:48.717Z,99115.41
2023-02-16T22:51:37.395Z,99120.19
2023-02-16T22:54:25.114Z,99125.00
2023-02-16T22:57:12.785Z,99121.88
2023-02-16T23:00:00.304Z,99117.13
2023-02-16T23:02:47.828Z,99127.31
2023-02-16T23:05:36.782Z,99116.38
2023-02-16T23:08:25.036Z,99123.09
2023-02-16T23:11:12.931Z,99120.03
2023-02-16T23:14:00.752Z,99116.94
2023-02-16T23:16:51.872Z,99121.91
2023-02-16T23:19:40.191Z,99114.41
2023-02-16T23:22:30.887Z,99119.34
2023-02-16T23:25:33.730Z,99115.41
2023-02-16T23:28:21.389Z,99113.34
2023-02-16T23:31:09.741Z,99110.31
2023-02-16T23:33:59.419Z,99113.44
2023-02-16T23:36:48.635Z,99119.09
2023-02-16T23:39:37.277Z,99116.84
2023-02-16T23:42:24.563Z,99115.47
2023-02-16T23:45:12.003Z,99112.41
2023-02-16T23:47:59.429Z,99109.28
2023-02-16T23:50:47.029Z,99110.34
2023-02-16T23:53:35.418Z,99115.78
2023-02-16T23:56:25.870Z,99104.50
2023-02-16T23:59:13.221Z,99103.97
